sensor_id;sensor_type;location;lat;lon;timestamp;P1;durP1;ratioP1;P2;durP2;ratioP2
3280;SDS011;1652;51.318;6.202;2023-10-19T00:00:33;16.10;;;13.10;;
3280;SDS011;1652;51.318;6.202;2023-10-19T00:03:02;20.00;;;14.00;;
3280;SDS011;1652;51.318;6.202;2023-10-19T00:05:30;14.50;;;12.73;;
3280;SDS011;1652;51.318;6.202;2023-10-19T00:07:59;22.43;;;13.27;;
3280;SDS011;1652;51.318;6.202;2023-10-19T00:10:31;25.40;;;13.63;;
3280;SDS011;1652;51.318;6.202;2023-10-19T00:13:02;15.63;;;13.50;;
3280;SDS011;1652;51.318;6.202;2023-10-19T00:15:31;15.50;;;13.50;;
3280;SDS011;1652;51.318;6.202;2023-10-19T00:18:01;15.10;;;12.80;;
3280;SDS011;1652;51.318;6.202;2023-10-19T00:20:43;20.53;;;13.53;;
3280;SDS011;1652;51.318;6.202;2023-10-19T00:23:20;16.67;;;13.10;;
3280;SDS011;1652;51.318;6.202;2023-10-19T00:25:59;17.40;;;13.27;;
3280;SDS011;1652;51.318;6.202;2023-10-19T00:28:31;17.90;;;13.20;;
3280;SDS011;1652;51.318;6.202;2023-10-19T00:54:57;18.80;;;12.73;;
3280;SDS011;1652;51.318;6.202;2023-10-19T00:57:25;13.87;;;12.37;;
3280;SDS011;1652;51.318;6.202;2023-10-19T01:00:02;16.03;;;12.70;;
3280;SDS011;1652;51.318;6.202;2023-10-19T01:02:39;14.70;;;12.50;;
3280;SDS011;1652;51.318;6.202;2023-10-19T01:05:13;14.33;;;12.07;;
3280;SDS011;1652;51.318;6.202;2023-10-19T01:07:41;18.97;;;11.80;;
3280;SDS011;1652;51.318;6.202;2023-10-19T01:10:08;15.20;;;13.27;;
3280;SDS011;1652;51.318;6.202;2023-10-19T01:12:39;18.20;;;11.87;;
3280;SDS011;1652;51.318;6.202;2023-10-19T01:17:44;17.77;;;13.33;;
3280;SDS011;1652;51.318;6.202;2023-10-19T01:20:15;17.70;;;10.60;;
3280;SDS011;1652;51.318;6.202;2023-10-19T01:23:02;13.87;;;11.87;;
3280;SDS011;1652;51.318;6.202;2023-10-19T01:28:16;16.07;;;11.67;;
3280;SDS011;1652;51.318;6.202;2023-10-19T01:30:45;11.63;;;10.20;;
3280;SDS011;1652;51.318;6.202;2023-10-19T01:33:13;18.00;;;11.93;;
3280;SDS011;1652;51.318;6.202;2023-10-19T01:35:42;15.20;;;11.60;;
3280;SDS011;1652;51.318;6.202;2023-10-19T01:38:27;15.93;;;11.53;;
3280;SDS011;1652;51.318;6.202;2023-10-19T01:40:58;15.80;;;11.20;;
3280;SDS011;1652;51.318;6.202;2023-10-19T01:43:26;12.23;;;11.00;;
3280;SDS011;1652;51.318;6.202;2023-10-19T01:45:57;16.47;;;10.80;;
3280;SDS011;1652;51.318;6.202;2023-10-19T01:48:30;12.23;;;10.87;;
3280;SDS011;1652;51.318;6.202;2023-10-19T01:51:01;16.17;;;10.80;;
3280;SDS011;1652;51.318;6.202;2023-10-19T01:53:32;14.23;;;11.40;;
3280;SDS011;1652;51.318;6.202;2023-10-19T01:56:00;12.57;;;9.97;;
3280;SDS011;1652;51.318;6.202;2023-10-19T01:58:32;10.40;;;9.50;;
3280;SDS011;1652;51.318;6.202;2023-10-19T02:01:03;16.20;;;9.77;;
3280;SDS011;1652;51.318;6.202;2023-10-19T02:03:35;12.33;;;9.50;;
3280;SDS011;1652;51.318;6.202;2023-10-19T02:06:03;11.50;;;9.57;;
3280;SDS011;1652;51.318;6.202;2023-10-19T02:08:46;12.70;;;10.67;;
3280;SDS011;1652;51.318;6.202;2023-10-19T02:11:24;11.63;;;10.30;;
3280;SDS011;1652;51.318;6.202;2023-10-19T02:13:55;11.90;;;10.70;;
3280;SDS011;1652;51.318;6.202;2023-10-19T02:16:31;14.93;;;10.33;;
3280;SDS011;1652;51.318;6.202;2023-10-19T02:18:59;11.77;;;10.60;;
3280;SDS011;1652;51.318;6.202;2023-10-19T02:21:27;11.40;;;9.53;;
3280;SDS011;1652;51.318;6.202;2023-10-19T02:23:59;15.13;;;10.10;;
3280;SDS011;1652;51.318;6.202;2023-10-19T02:26:26;12.73;;;9.07;;
3280;SDS011;1652;51.318;6.202;2023-10-19T02:28:54;10.70;;;9.70;;
3280;SDS011;1652;51.318;6.202;2023-10-19T02:31:22;10.73;;;9.63;;
3280;SDS011;1652;51.318;6.202;2023-10-19T02:33:52;10.23;;;8.97;;
3280;SDS011;1652;51.318;6.202;2023-10-19T02:36:27;12.23;;;8.90;;
3280;SDS011;1652;51.318;6.202;2023-10-19T02:38:57;9.73;;;8.77;;
3280;SDS011;1652;51.318;6.202;2023-10-19T02:41:26;11.50;;;8.23;;
3280;SDS011;1652;51.318;6.202;2023-10-19T02:43:53;12.10;;;7.80;;
3280;SDS011;1652;51.318;6.202;2023-10-19T02:46:31;8.80;;;8.00;;
3280;SDS011;1652;51.318;6.202;2023-10-19T02:49:02;8.00;;;7.10;;
3280;SDS011;1652;51.318;6.202;2023-10-19T02:51:30;8.87;;;8.10;;
3280;SDS011;1652;51.318;6.202;2023-10-19T02:53:57;10.50;;;7.60;;
3280;SDS011;1652;51.318;6.202;2023-10-19T02:56:28;7.57;;;6.97;;
3280;SDS011;1652;51.318;6.202;2023-10-19T02:58:56;7.77;;;6.50;;
3280;SDS011;1652;51.318;6.202;2023-10-19T03:01:32;8.60;;;7.23;;
3280;SDS011;1652;51.318;6.202;2023-10-19T03:04:02;7.83;;;6.70;;
3280;SDS011;1652;51.318;6.202;2023-10-19T03:06:32;5.97;;;5.47;;
3280;SDS011;1652;51.318;6.202;2023-10-19T03:09:00;8.00;;;6.13;;
3280;SDS011;1652;51.318;6.202;2023-10-19T03:11:37;6.90;;;6.30;;
3280;SDS011;1652;51.318;6.202;2023-10-19T03:14:07;6.27;;;5.77;;
3280;SDS011;1652;51.318;6.202;2023-10-19T03:16:38;7.20;;;6.40;;
3280;SDS011;1652;51.318;6.202;2023-10-19T03:19:08;6.97;;;5.60;;
3280;SDS011;1652;51.318;6.202;2023-10-19T03:21:35;6.37;;;5.77;;
3280;SDS011;1652;51.318;6.202;2023-10-19T03:24:12;5.20;;;4.90;;
3280;SDS011;1652;51.318;6.202;2023-10-19T03:26:40;4.63;;;4.23;;
3280;SDS011;1652;51.318;6.202;2023-10-19T03:29:18;9.90;;;4.73;;
3280;SDS011;1652;51.318;6.202;2023-10-19T03:31:57;5.13;;;4.77;;
3280;SDS011;1652;51.318;6.202;2023-10-19T03:34:27;5.53;;;5.13;;
3280;SDS011;1652;51.318;6.202;2023-10-19T03:37:02;6.60;;;4.70;;
3280;SDS011;1652;51.318;6.202;2023-10-19T03:39:33;6.13;;;4.60;;
3280;SDS011;1652;51.318;6.202;2023-10-19T03:42:04;5.50;;;4.40;;
3280;SDS011;1652;51.318;6.202;2023-10-19T03:44:33;6.93;;;4.20;;
3280;SDS011;1652;51.318;6.202;2023-10-19T03:47:15;3.97;;;3.77;;
3280;SDS011;1652;51.318;6.202;2023-10-19T03:49:52;4.43;;;4.23;;
3280;SDS011;1652;51.318;6.202;2023-10-19T03:52:19;5.13;;;4.00;;
3280;SDS011;1652;51.318;6.202;2023-10-19T03:54:47;5.23;;;3.90;;
3280;SDS011;1652;51.318;6.202;2023-10-19T03:57:15;4.50;;;4.10;;
3280;SDS011;1652;51.318;6.202;2023-10-19T03:59:50;6.97;;;3.67;;
3280;SDS011;1652;51.318;6.202;2023-10-19T04:02:27;3.73;;;3.53;;
3280;SDS011;1652;51.318;6.202;2023-10-19T04:04:56;3.63;;;3.20;;
3280;SDS011;1652;51.318;6.202;2023-10-19T04:07:24;3.60;;;3.17;;
3280;SDS011;1652;51.318;6.202;2023-10-19T04:09:58;6.13;;;3.80;;
3280;SDS011;1652;51.318;6.202;2023-10-19T04:12:30;4.27;;;3.57;;
3280;SDS011;1652;51.318;6.202;2023-10-19T04:14:58;4.03;;;3.70;;
3280;SDS011;1652;51.318;6.202;2023-10-19T04:17:41;6.57;;;3.17;;
3280;SDS011;1652;51.318;6.202;2023-10-19T04:20:17;9.97;;;2.30;;
3280;SDS011;1652;51.318;6.202;2023-10-19T04:22:47;4.40;;;2.60;;
3280;SDS011;1652;51.318;6.202;2023-10-19T04:25:17;3.60;;;2.57;;
3280;SDS011;1652;51.318;6.202;2023-10-19T04:27:45;2.80;;;2.60;;
3280;SDS011;1652;51.318;6.202;2023-10-19T04:30:15;2.97;;;1.80;;
3280;SDS011;1652;51.318;6.202;2023-10-19T04:32:42;6.97;;;2.00;;
3280;SDS011;1652;51.318;6.202;2023-10-19T04:35:10;17.70;;;2.30;;
3280;SDS011;1652;51.318;6.202;2023-10-19T04:37:40;5.37;;;1.60;;
3280;SDS011;1652;51.318;6.202;2023-10-19T04:40:09;4.53;;;1.43;;
3280;SDS011;1652;51.318;6.202;2023-10-19T04:42:40;4.83;;;1.80;;
3280;SDS011;1652;51.318;6.202;2023-10-19T04:45:07;5.70;;;1.90;;
3280;SDS011;1652;51.318;6.202;2023-10-19T04:47:34;5.20;;;1.80;;
3280;SDS011;1652;51.318;6.202;2023-10-19T04:50:02;6.60;;;2.07;;
3280;SDS011;1652;51.318;6.202;2023-10-19T04:55:07;7.83;;;1.87;;
3280;SDS011;1652;51.318;6.202;2023-10-19T04:57:34;5.67;;;1.70;;
3280;SDS011;1652;51.318;6.202;2023-10-19T05:00:01;7.33;;;1.90;;
3280;SDS011;1652;51.318;6.202;2023-10-19T05:02:29;5.93;;;1.53;;
3280;SDS011;1652;51.318;6.202;2023-10-19T05:04:57;2.53;;;1.97;;
3280;SDS011;1652;51.318;6.202;2023-10-19T05:07:23;5.20;;;1.77;;
3280;SDS011;1652;51.318;6.202;2023-10-19T05:09:50;7.27;;;1.87;;
3280;SDS011;1652;51.318;6.202;2023-10-19T05:12:20;3.70;;;1.63;;
3280;SDS011;1652;51.318;6.202;2023-10-19T05:14:47;6.50;;;1.70;;
3280;SDS011;1652;51.318;6.202;2023-10-19T05:17:14;11.67;;;2.87;;
3280;SDS011;1652;51.318;6.202;2023-10-19T05:19:41;4.53;;;2.33;;
3280;SDS011;1652;51.318;6.202;2023-10-19T05:22:09;5.40;;;1.47;;
3280;SDS011;1652;51.318;6.202;2023-10-19T05:24:36;3.60;;;1.53;;
3280;SDS011;1652;51.318;6.202;2023-10-19T05:27:03;5.20;;;1.97;;
3280;SDS011;1652;51.318;6.202;2023-10-19T05:29:31;8.13;;;3.83;;
3280;SDS011;1652;51.318;6.202;2023-10-19T05:32:02;3.77;;;2.63;;
3280;SDS011;1652;51.318;6.202;2023-10-19T05:34:30;7.63;;;2.03;;
3280;SDS011;1652;51.318;6.202;2023-10-19T05:36:59;9.77;;;1.77;;
3280;SDS011;1652;51.318;6.202;2023-10-19T05:39:29;5.73;;;1.80;;
3280;SDS011;1652;51.318;6.202;2023-10-19T05:41:57;2.47;;;1.30;;
3280;SDS011;1652;51.318;6.202;2023-10-19T05:44:28;2.30;;;2.10;;
3280;SDS011;1652;51.318;6.202;2023-10-19T05:46:57;4.70;;;1.80;;
3280;SDS011;1652;51.318;6.202;2023-10-19T05:49:26;3.43;;;2.37;;
3280;SDS011;1652;51.318;6.202;2023-10-19T05:51:54;5.60;;;1.63;;
3280;SDS011;1652;51.318;6.202;2023-10-19T05:54:21;5.20;;;2.00;;
3280;SDS011;1652;51.318;6.202;2023-10-19T05:56:50;4.03;;;1.60;;
3280;SDS011;1652;51.318;6.202;2023-10-19T05:59:20;5.33;;;1.83;;
3280;SDS011;1652;51.318;6.202;2023-10-19T06:01:47;7.13;;;1.70;;
3280;SDS011;1652;51.318;6.202;2023-10-19T06:04:15;12.00;;;2.63;;
3280;SDS011;1652;51.318;6.202;2023-10-19T06:06:46;7.03;;;1.80;;
3280;SDS011;1652;51.318;6.202;2023-10-19T06:09:15;5.33;;;2.03;;
3280;SDS011;1652;51.318;6.202;2023-10-19T06:11:44;10.33;;;3.77;;
3280;SDS011;1652;51.318;6.202;2023-10-19T06:14:11;4.73;;;3.07;;
3280;SDS011;1652;51.318;6.202;2023-10-19T06:16:38;5.73;;;2.83;;
3280;SDS011;1652;51.318;6.202;2023-10-19T06:19:05;6.40;;;2.27;;
3280;SDS011;1652;51.318;6.202;2023-10-19T06:21:33;4.57;;;2.87;;
3280;SDS011;1652;51.318;6.202;2023-10-19T06:24:01;8.60;;;3.73;;
3280;SDS011;1652;51.318;6.202;2023-10-19T06:26:29;6.37;;;3.27;;
3280;SDS011;1652;51.318;6.202;2023-10-19T06:28:56;4.90;;;2.20;;
3280;SDS011;1652;51.318;6.202;2023-10-19T06:31:25;4.03;;;2.23;;
3280;SDS011;1652;51.318;6.202;2023-10-19T06:33:56;5.80;;;2.43;;
3280;SDS011;1652;51.318;6.202;2023-10-19T06:36:27;11.23;;;3.00;;
3280;SDS011;1652;51.318;6.202;2023-10-19T06:38:55;17.20;;;9.33;;
3280;SDS011;1652;51.318;6.202;2023-10-19T06:41:22;5.97;;;2.70;;
3280;SDS011;1652;51.318;6.202;2023-10-19T06:43:50;10.53;;;4.73;;
3280;SDS011;1652;51.318;6.202;2023-10-19T06:46:17;6.60;;;2.37;;
3280;SDS011;1652;51.318;6.202;2023-10-19T06:48:44;5.10;;;2.50;;
3280;SDS011;1652;51.318;6.202;2023-10-19T06:51:11;4.13;;;2.50;;
3280;SDS011;1652;51.318;6.202;2023-10-19T06:53:38;7.07;;;4.60;;
3280;SDS011;1652;51.318;6.202;2023-10-19T06:56:05;9.60;;;2.50;;
3280;SDS011;1652;51.318;6.202;2023-10-19T06:58:33;5.60;;;2.57;;
3280;SDS011;1652;51.318;6.202;2023-10-19T07:01:00;5.70;;;3.00;;
3280;SDS011;1652;51.318;6.202;2023-10-19T07:03:34;4.00;;;2.20;;
3280;SDS011;1652;51.318;6.202;2023-10-19T07:06:01;7.60;;;2.77;;
3280;SDS011;1652;51.318;6.202;2023-10-19T07:08:35;6.80;;;3.50;;
3280;SDS011;1652;51.318;6.202;2023-10-19T07:11:02;4.30;;;2.90;;
3280;SDS011;1652;51.318;6.202;2023-10-19T07:13:29;2.70;;;1.60;;
3280;SDS011;1652;51.318;6.202;2023-10-19T07:16:00;4.47;;;2.37;;
3280;SDS011;1652;51.318;6.202;2023-10-19T07:18:27;10.80;;;2.33;;
3280;SDS011;1652;51.318;6.202;2023-10-19T07:20:55;10.40;;;6.40;;
3280;SDS011;1652;51.318;6.202;2023-10-19T07:23:30;5.40;;;1.87;;
3280;SDS011;1652;51.318;6.202;2023-10-19T07:25:57;3.87;;;2.27;;
3280;SDS011;1652;51.318;6.202;2023-10-19T07:28:28;6.13;;;1.93;;
3280;SDS011;1652;51.318;6.202;2023-10-19T07:30:56;16.70;;;4.00;;
3280;SDS011;1652;51.318;6.202;2023-10-19T07:33:23;4.43;;;2.60;;
3280;SDS011;1652;51.318;6.202;2023-10-19T07:35:50;4.50;;;1.93;;
3280;SDS011;1652;51.318;6.202;2023-10-19T07:38:23;5.53;;;3.20;;
3280;SDS011;1652;51.318;6.202;2023-10-19T07:40:51;9.30;;;3.07;;
3280;SDS011;1652;51.318;6.202;2023-10-19T07:43:20;4.80;;;3.40;;
3280;SDS011;1652;51.318;6.202;2023-10-19T07:45:48;11.73;;;4.57;;
3280;SDS011;1652;51.318;6.202;2023-10-19T07:48:15;6.47;;;2.67;;
3280;SDS011;1652;51.318;6.202;2023-10-19T07:50:43;5.27;;;2.70;;
3280;SDS011;1652;51.318;6.202;2023-10-19T07:53:11;4.03;;;2.03;;
3280;SDS011;1652;51.318;6.202;2023-10-19T07:55:38;4.97;;;2.27;;
3280;SDS011;1652;51.318;6.202;2023-10-19T07:58:06;6.27;;;2.03;;
3280;SDS011;1652;51.318;6.202;2023-10-19T08:00:33;5.33;;;1.63;;
3280;SDS011;1652;51.318;6.202;2023-10-19T08:03:01;9.63;;;5.03;;
3280;SDS011;1652;51.318;6.202;2023-10-19T08:05:29;6.27;;;2.87;;
3280;SDS011;1652;51.318;6.202;2023-10-19T08:07:57;11.77;;;1.63;;
3280;SDS011;1652;51.318;6.202;2023-10-19T08:10:27;5.17;;;3.13;;
3280;SDS011;1652;51.318;6.202;2023-10-19T08:12:54;5.87;;;2.43;;
3280;SDS011;1652;51.318;6.202;2023-10-19T08:15:22;2.97;;;2.73;;
3280;SDS011;1652;51.318;6.202;2023-10-19T08:17:52;10.20;;;2.43;;
3280;SDS011;1652;51.318;6.202;2023-10-19T08:20:21;14.03;;;3.53;;
3280;SDS011;1652;51.318;6.202;2023-10-19T08:22:54;6.30;;;2.03;;
3280;SDS011;1652;51.318;6.202;2023-10-19T08:25:26;2.33;;;2.00;;
3280;SDS011;1652;51.318;6.202;2023-10-19T08:28:08;10.90;;;1.90;;
3280;SDS011;1652;51.318;6.202;2023-10-19T08:30:37;5.23;;;1.90;;
3280;SDS011;1652;51.318;6.202;2023-10-19T08:33:04;2.93;;;1.17;;
3280;SDS011;1652;51.318;6.202;2023-10-19T08:35:34;8.40;;;3.07;;
3280;SDS011;1652;51.318;6.202;2023-10-19T08:38:02;5.93;;;1.90;;
3280;SDS011;1652;51.318;6.202;2023-10-19T08:40:36;5.23;;;2.93;;
3280;SDS011;1652;51.318;6.202;2023-10-19T08:43:04;9.70;;;2.33;;
3280;SDS011;1652;51.318;6.202;2023-10-19T08:45:34;9.70;;;3.60;;
3280;SDS011;1652;51.318;6.202;2023-10-19T08:48:01;4.50;;;3.83;;
3280;SDS011;1652;51.318;6.202;2023-10-19T08:50:32;11.07;;;1.83;;
3280;SDS011;1652;51.318;6.202;2023-10-19T08:53:08;2.73;;;1.47;;
3280;SDS011;1652;51.318;6.202;2023-10-19T08:55:36;11.13;;;2.70;;
3280;SDS011;1652;51.318;6.202;2023-10-19T08:58:14;9.60;;;3.30;;
3280;SDS011;1652;51.318;6.202;2023-10-19T09:00:44;5.93;;;4.47;;
3280;SDS011;1652;51.318;6.202;2023-10-19T09:03:22;10.83;;;3.70;;
3280;SDS011;1652;51.318;6.202;2023-10-19T09:05:53;10.63;;;6.90;;
3280;SDS011;1652;51.318;6.202;2023-10-19T09:08:21;11.80;;;2.13;;
3280;SDS011;1652;51.318;6.202;2023-10-19T09:10:49;7.53;;;5.73;;
3280;SDS011;1652;51.318;6.202;2023-10-19T09:13:20;5.97;;;3.73;;
3280;SDS011;1652;51.318;6.202;2023-10-19T09:15:51;6.70;;;3.67;;
3280;SDS011;1652;51.318;6.202;2023-10-19T09:18:23;10.70;;;4.43;;
3280;SDS011;1652;51.318;6.202;2023-10-19T09:20:55;22.13;;;3.80;;
3280;SDS011;1652;51.318;6.202;2023-10-19T09:23:29;7.23;;;2.13;;
3280;SDS011;1652;51.318;6.202;2023-10-19T09:25:58;6.30;;;3.30;;
3280;SDS011;1652;51.318;6.202;2023-10-19T09:28:30;13.00;;;9.50;;
3280;SDS011;1652;51.318;6.202;2023-10-19T09:31:01;8.00;;;3.77;;
3280;SDS011;1652;51.318;6.202;2023-10-19T09:33:28;11.57;;;6.03;;
3280;SDS011;1652;51.318;6.202;2023-10-19T09:35:56;7.33;;;3.87;;
3280;SDS011;1652;51.318;6.202;2023-10-19T09:41:15;7.30;;;3.90;;
3280;SDS011;1652;51.318;6.202;2023-10-19T09:43:48;7.17;;;3.40;;
3280;SDS011;1652;51.318;6.202;2023-10-19T09:46:37;11.20;;;1.80;;
3280;SDS011;1652;51.318;6.202;2023-10-19T09:49:06;4.13;;;1.67;;
3280;SDS011;1652;51.318;6.202;2023-10-19T09:51:34;7.57;;;2.40;;
3280;SDS011;1652;51.318;6.202;2023-10-19T09:56:32;8.93;;;3.37;;
3280;SDS011;1652;51.318;6.202;2023-10-19T09:59:04;7.27;;;2.57;;
3280;SDS011;1652;51.318;6.202;2023-10-19T10:04:41;14.70;;;5.73;;
3280;SDS011;1652;51.318;6.202;2023-10-19T10:07:09;19.97;;;8.53;;
3280;SDS011;1652;51.318;6.202;2023-10-19T10:09:37;8.40;;;3.30;;
3280;SDS011;1652;51.318;6.202;2023-10-19T10:14:59;8.97;;;2.73;;
3280;SDS011;1652;51.318;6.202;2023-10-19T10:17:29;13.30;;;2.77;;
3280;SDS011;1652;51.318;6.202;2023-10-19T10:22:41;16.37;;;7.93;;
3280;SDS011;1652;51.318;6.202;2023-10-19T10:25:25;10.57;;;5.83;;
3280;SDS011;1652;51.318;6.202;2023-10-19T10:27:55;11.63;;;1.80;;
3280;SDS011;1652;51.318;6.202;2023-10-19T10:30:22;6.00;;;2.90;;
3280;SDS011;1652;51.318;6.202;2023-10-19T10:32:50;10.27;;;5.23;;
3280;SDS011;1652;51.318;6.202;2023-10-19T10:38:08;14.90;;;3.50;;
3280;SDS011;1652;51.318;6.202;2023-10-19T10:40:42;72.90;;;45.13;;
3280;SDS011;1652;51.318;6.202;2023-10-19T10:43:10;34.33;;;16.80;;
3280;SDS011;1652;51.318;6.202;2023-10-19T10:45:38;13.67;;;2.73;;
3280;SDS011;1652;51.318;6.202;2023-10-19T10:48:14;15.63;;;6.80;;
3280;SDS011;1652;51.318;6.202;2023-10-19T10:50:42;10.60;;;2.70;;
3280;SDS011;1652;51.318;6.202;2023-10-19T10:53:10;5.57;;;2.40;;
3280;SDS011;1652;51.318;6.202;2023-10-19T10:55:41;7.00;;;2.57;;
3280;SDS011;1652;51.318;6.202;2023-10-19T10:58:09;3.20;;;1.70;;
3280;SDS011;1652;51.318;6.202;2023-10-19T11:00:45;5.67;;;2.03;;
3280;SDS011;1652;51.318;6.202;2023-10-19T11:03:18;14.63;;;2.57;;
3280;SDS011;1652;51.318;6.202;2023-10-19T11:05:45;6.17;;;2.03;;
3280;SDS011;1652;51.318;6.202;2023-10-19T11:08:13;3.10;;;1.80;;
3280;SDS011;1652;51.318;6.202;2023-10-19T11:10:47;5.80;;;2.50;;
3280;SDS011;1652;51.318;6.202;2023-10-19T11:13:15;4.10;;;2.00;;
3280;SDS011;1652;51.318;6.202;2023-10-19T11:15:50;5.20;;;1.93;;
3280;SDS011;1652;51.318;6.202;2023-10-19T11:18:36;6.90;;;2.60;;
3280;SDS011;1652;51.318;6.202;2023-10-19T11:21:05;4.37;;;2.30;;
3280;SDS011;1652;51.318;6.202;2023-10-19T11:23:46;5.67;;;2.37;;
3280;SDS011;1652;51.318;6.202;2023-10-19T11:26:19;4.70;;;1.73;;
3280;SDS011;1652;51.318;6.202;2023-10-19T11:28:49;4.27;;;2.03;;
3280;SDS011;1652;51.318;6.202;2023-10-19T11:31:24;11.43;;;2.50;;
3280;SDS011;1652;51.318;6.202;2023-10-19T11:33:51;6.27;;;2.87;;
3280;SDS011;1652;51.318;6.202;2023-10-19T11:36:21;4.67;;;2.27;;
3280;SDS011;1652;51.318;6.202;2023-10-19T11:38:51;4.97;;;2.00;;
3280;SDS011;1652;51.318;6.202;2023-10-19T11:41:18;6.03;;;2.50;;
3280;SDS011;1652;51.318;6.202;2023-10-19T11:43:46;5.00;;;2.87;;
3280;SDS011;1652;51.318;6.202;2023-10-19T11:46:14;5.03;;;2.80;;
3280;SDS011;1652;51.318;6.202;2023-10-19T11:48:45;7.50;;;2.50;;
3280;SDS011;1652;51.318;6.202;2023-10-19T11:51:13;3.73;;;1.20;;
3280;SDS011;1652;51.318;6.202;2023-10-19T11:53:41;6.43;;;2.20;;
3280;SDS011;1652;51.318;6.202;2023-10-19T11:56:10;3.63;;;2.47;;
3280;SDS011;1652;51.318;6.202;2023-10-19T11:58:39;7.20;;;2.20;;
3280;SDS011;1652;51.318;6.202;2023-10-19T12:01:09;5.60;;;1.93;;
3280;SDS011;1652;51.318;6.202;2023-10-19T12:03:40;7.70;;;2.00;;
3280;SDS011;1652;51.318;6.202;2023-10-19T12:06:08;7.80;;;2.10;;
3280;SDS011;1652;51.318;6.202;2023-10-19T12:08:37;3.30;;;1.53;;
3280;SDS011;1652;51.318;6.202;2023-10-19T12:11:05;6.50;;;2.07;;
3280;SDS011;1652;51.318;6.202;2023-10-19T12:13:43;9.53;;;4.37;;
3280;SDS011;1652;51.318;6.202;2023-10-19T12:16:10;8.20;;;2.77;;
3280;SDS011;1652;51.318;6.202;2023-10-19T12:18:43;4.43;;;1.60;;
3280;SDS011;1652;51.318;6.202;2023-10-19T12:21:10;6.17;;;1.90;;
3280;SDS011;1652;51.318;6.202;2023-10-19T12:23:41;7.30;;;1.97;;
3280;SDS011;1652;51.318;6.202;2023-10-19T12:26:17;8.13;;;2.10;;
3280;SDS011;1652;51.318;6.202;2023-10-19T12:28:46;4.97;;;1.73;;
3280;SDS011;1652;51.318;6.202;2023-10-19T12:31:15;10.53;;;2.20;;
3280;SDS011;1652;51.318;6.202;2023-10-19T12:33:46;2.07;;;1.63;;
3280;SDS011;1652;51.318;6.202;2023-10-19T12:36:13;9.80;;;2.33;;
3280;SDS011;1652;51.318;6.202;2023-10-19T12:38:49;7.07;;;2.07;;
3280;SDS011;1652;51.318;6.202;2023-10-19T12:41:20;13.73;;;3.00;;
3280;SDS011;1652;51.318;6.202;2023-10-19T12:43:48;7.23;;;2.60;;
3280;SDS011;1652;51.318;6.202;2023-10-19T12:46:19;12.30;;;2.50;;
3280;SDS011;1652;51.318;6.202;2023-10-19T12:48:46;6.60;;;2.30;;
3280;SDS011;1652;51.318;6.202;2023-10-19T12:51:15;5.57;;;2.27;;
3280;SDS011;1652;51.318;6.202;2023-10-19T12:53:50;7.80;;;2.43;;
3280;SDS011;1652;51.318;6.202;2023-10-19T12:56:18;9.87;;;2.67;;
3280;SDS011;1652;51.318;6.202;2023-10-19T12:58:46;17.67;;;2.90;;
3280;SDS011;1652;51.318;6.202;2023-10-19T13:01:14;6.80;;;1.90;;
3280;SDS011;1652;51.318;6.202;2023-10-19T13:03:46;11.23;;;2.80;;
3280;SDS011;1652;51.318;6.202;2023-10-19T13:06:16;7.30;;;2.63;;
3280;SDS011;1652;51.318;6.202;2023-10-19T13:08:44;9.23;;;2.93;;
3280;SDS011;1652;51.318;6.202;2023-10-19T13:11:10;8.33;;;2.80;;
3280;SDS011;1652;51.318;6.202;2023-10-19T13:13:44;9.83;;;3.50;;
3280;SDS011;1652;51.318;6.202;2023-10-19T13:16:12;9.50;;;2.73;;
3280;SDS011;1652;51.318;6.202;2023-10-19T13:18:40;12.47;;;4.00;;
3280;SDS011;1652;51.318;6.202;2023-10-19T13:21:07;10.27;;;3.27;;
3280;SDS011;1652;51.318;6.202;2023-10-19T13:23:42;14.50;;;4.50;;
3280;SDS011;1652;51.318;6.202;2023-10-19T13:26:09;17.17;;;4.10;;
3280;SDS011;1652;51.318;6.202;2023-10-19T13:28:43;9.67;;;3.60;;
3280;SDS011;1652;51.318;6.202;2023-10-19T13:31:11;8.93;;;3.90;;
3280;SDS011;1652;51.318;6.202;2023-10-19T13:33:42;11.30;;;4.07;;
3280;SDS011;1652;51.318;6.202;2023-10-19T13:36:10;5.40;;;4.00;;
3280;SDS011;1652;51.318;6.202;2023-10-19T13:38:39;10.40;;;4.20;;
3280;SDS011;1652;51.318;6.202;2023-10-19T13:41:07;14.87;;;4.83;;
3280;SDS011;1652;51.318;6.202;2023-10-19T13:43:37;14.73;;;4.03;;
3280;SDS011;1652;51.318;6.202;2023-10-19T13:46:05;12.27;;;3.67;;
3280;SDS011;1652;51.318;6.202;2023-10-19T13:48:33;9.73;;;6.17;;
3280;SDS011;1652;51.318;6.202;2023-10-19T13:51:00;17.50;;;6.23;;
3280;SDS011;1652;51.318;6.202;2023-10-19T13:53:27;13.20;;;3.80;;
3280;SDS011;1652;51.318;6.202;2023-10-19T13:55:54;14.60;;;4.83;;
3280;SDS011;1652;51.318;6.202;2023-10-19T13:58:21;20.23;;;7.93;;
3280;SDS011;1652;51.318;6.202;2023-10-19T14:00:49;18.60;;;5.97;;
3280;SDS011;1652;51.318;6.202;2023-10-19T14:03:16;18.30;;;4.97;;
3280;SDS011;1652;51.318;6.202;2023-10-19T14:05:44;8.33;;;4.83;;
3280;SDS011;1652;51.318;6.202;2023-10-19T14:08:15;8.87;;;4.70;;
3280;SDS011;1652;51.318;6.202;2023-10-19T14:10:44;29.53;;;5.63;;
3280;SDS011;1652;51.318;6.202;2023-10-19T14:13:11;9.37;;;5.13;;
3280;SDS011;1652;51.318;6.202;2023-10-19T14:15:38;8.17;;;5.17;;
3280;SDS011;1652;51.318;6.202;2023-10-19T14:18:06;15.40;;;6.07;;
3280;SDS011;1652;51.318;6.202;2023-10-19T14:20:33;14.07;;;5.57;;
3280;SDS011;1652;51.318;6.202;2023-10-19T14:23:01;10.83;;;3.87;;
3280;SDS011;1652;51.318;6.202;2023-10-19T14:25:31;13.40;;;5.33;;
3280;SDS011;1652;51.318;6.202;2023-10-19T14:28:02;8.00;;;3.93;;
3280;SDS011;1652;51.318;6.202;2023-10-19T14:30:33;7.83;;;3.93;;
3280;SDS011;1652;51.318;6.202;2023-10-19T14:33:00;5.67;;;2.97;;
3280;SDS011;1652;51.318;6.202;2023-10-19T14:35:28;8.17;;;4.70;;
3280;SDS011;1652;51.318;6.202;2023-10-19T14:37:55;9.83;;;3.00;;
3280;SDS011;1652;51.318;6.202;2023-10-19T14:40:24;9.20;;;3.23;;
3280;SDS011;1652;51.318;6.202;2023-10-19T14:42:53;18.77;;;6.73;;
3280;SDS011;1652;51.318;6.202;2023-10-19T14:45:21;16.10;;;3.40;;
3280;SDS011;1652;51.318;6.202;2023-10-19T14:47:55;26.27;;;9.13;;
3280;SDS011;1652;51.318;6.202;2023-10-19T14:50:30;15.37;;;4.87;;
3280;SDS011;1652;51.318;6.202;2023-10-19T14:52:57;12.43;;;4.33;;
3280;SDS011;1652;51.318;6.202;2023-10-19T14:55:24;8.77;;;3.13;;
3280;SDS011;1652;51.318;6.202;2023-10-19T14:57:52;6.53;;;3.50;;
3280;SDS011;1652;51.318;6.202;2023-10-19T15:00:24;11.97;;;3.57;;
3280;SDS011;1652;51.318;6.202;2023-10-19T15:02:53;13.93;;;6.60;;
3280;SDS011;1652;51.318;6.202;2023-10-19T15:05:27;15.70;;;3.27;;
3280;SDS011;1652;51.318;6.202;2023-10-19T15:07:55;15.77;;;3.30;;
3280;SDS011;1652;51.318;6.202;2023-10-19T15:10:25;17.43;;;4.93;;
3280;SDS011;1652;51.318;6.202;2023-10-19T15:12:54;9.77;;;2.90;;
3280;SDS011;1652;51.318;6.202;2023-10-19T15:15:22;8.07;;;2.70;;
3280;SDS011;1652;51.318;6.202;2023-10-19T15:17:49;12.33;;;3.43;;
3280;SDS011;1652;51.318;6.202;2023-10-19T15:20:20;14.57;;;5.60;;
3280;SDS011;1652;51.318;6.202;2023-10-19T15:22:51;18.27;;;11.40;;
3280;SDS011;1652;51.318;6.202;2023-10-19T15:25:20;12.23;;;3.43;;
3280;SDS011;1652;51.318;6.202;2023-10-19T15:27:51;8.13;;;2.53;;
3280;SDS011;1652;51.318;6.202;2023-10-19T15:30:19;10.97;;;4.10;;
3280;SDS011;1652;51.318;6.202;2023-10-19T15:32:48;11.17;;;3.33;;
3280;SDS011;1652;51.318;6.202;2023-10-19T15:35:16;10.63;;;3.30;;
3280;SDS011;1652;51.318;6.202;2023-10-19T15:37:51;16.97;;;5.90;;
3280;SDS011;1652;51.318;6.202;2023-10-19T15:40:23;10.50;;;3.10;;
3280;SDS011;1652;51.318;6.202;2023-10-19T15:42:52;5.87;;;3.10;;
3280;SDS011;1652;51.318;6.202;2023-10-19T15:45:25;4.73;;;2.50;;
3280;SDS011;1652;51.318;6.202;2023-10-19T15:47:53;6.93;;;2.77;;
3280;SDS011;1652;51.318;6.202;2023-10-19T15:50:21;9.23;;;2.90;;
3280;SDS011;1652;51.318;6.202;2023-10-19T15:52:49;8.63;;;2.60;;
3280;SDS011;1652;51.318;6.202;2023-10-19T15:55:18;19.27;;;2.67;;
3280;SDS011;1652;51.318;6.202;2023-10-19T15:57:48;6.40;;;2.70;;
3280;SDS011;1652;51.318;6.202;2023-10-19T16:00:17;7.27;;;3.20;;
3280;SDS011;1652;51.318;6.202;2023-10-19T16:02:44;5.33;;;2.57;;
3280;SDS011;1652;51.318;6.202;2023-10-19T16:05:11;2.97;;;2.67;;
3280;SDS011;1652;51.318;6.202;2023-10-19T16:07:41;5.97;;;3.10;;
3280;SDS011;1652;51.318;6.202;2023-10-19T16:10:09;16.30;;;3.57;;
3280;SDS011;1652;51.318;6.202;2023-10-19T16:12:39;5.53;;;3.70;;